East Texas Regional Airport Longview US
ICAO: KGGG
IATA: GGG
Category: Medium
Scheduled Services: Yes

Elevation: 365 ft
TransAlt. 18000 ft.

Airport Communications:
LONGVIEW APP/DEP:118.25
ATIS:119.65
CTAF:119.2
GND:121.6
TWR:119.2
UNICOM:122.95

KGGG Zoom In..

If you have problems with the map follow the link
https://www.worldairports.se/pages/airport.php?
ICAO=KGGG

Runways:

(A) RW 13 length 10000 ft width 150 ft
ILS 109.50 / hdg 131

(B) RW 18 length 6109 ft width 150 ft
---- / hdg 176

(C) RW 31 length 10000 ft width 150 ft
---- / hdg 311

(D) RW 36 length 6109 ft width 150 ft
---- / hdg 356

Location; KGGG
Day. 23 / Time. 23.53 Zulu
* Altimeter: 29.99
* Temperature: 08° c. 46.4°f.
* Wind from: 000° Speed 00 kn.
Dewpoint: 05° c.
Visibility: 10 Statute Miles.
Clouds: Scattered 2700 ft.

KGGG 232353Z 00000KT 10SM SCT027 08/05 A2999 RMK AO2 SLP158 T00780050 10106 20072 53006


Wind - Calm.

 
 
jpsmedia worldairports.se 2020   terms of use